RYR430 LGAV-LGSK
Flight info
| Callsign | RYR430 |
|---|---|
| Flight time | N/A |
| Altitude | 14000 |
| Route | ROPOX M749 SIGFO |
| Aircraft | B738/M-SDE2E3FGHIRWXY/LB1 |
Departure
| Time | N/A |
|---|---|
| Airport | Athens Eleftherios Venizelos International Airport (LGAV) |
Arrival
| Time | 2026-04-22 06:45 |
|---|---|
| Airport | Skiathos Island National Airport (LGSK) |
| Time | Latitude | Longitude | Altitude | Speed | Heading |
|---|---|---|---|---|---|
| 2026-04-22 06:19 | 38.91797 | 23.65482 | 7932 ft | 270 kts | 349° |
| 2026-04-22 06:19 | 38.93665 | 23.65207 | 7650 ft | 269 kts | 349° |
| 2026-04-22 06:19 | 38.95520 | 23.65297 | 7350 ft | 276 kts | 12° |
| 2026-04-22 06:20 | 38.97257 | 23.66365 | 7102 ft | 278 kts | 28° |
| 2026-04-22 06:20 | 38.98889 | 23.67699 | 6853 ft | 277 kts | 30° |
| 2026-04-22 06:20 | 39.00493 | 23.69046 | 6660 ft | 273 kts | 30° |
| 2026-04-22 06:20 | 39.02066 | 23.70375 | 6499 ft | 268 kts | 30° |
| 2026-04-22 06:21 | 39.03608 | 23.71682 | 6375 ft | 262 kts | 30° |
| 2026-04-22 06:21 | 39.05104 | 23.72953 | 6298 ft | 254 kts | 30° |
| 2026-04-22 06:21 | 39.06584 | 23.74212 | 6287 ft | 259 kts | 29° |
| 2026-04-22 06:21 | 39.08127 | 23.75534 | 6297 ft | 273 kts | 30° |
| 2026-04-22 06:22 | 39.09732 | 23.76902 | 6035 ft | 279 kts | 31° |
| 2026-04-22 06:22 | 39.11331 | 23.78298 | 5784 ft | 276 kts | 30° |
| 2026-04-22 06:22 | 39.12937 | 23.79635 | 5524 ft | 274 kts | 30° |
| 2026-04-22 06:22 | 39.14533 | 23.80965 | 5272 ft | 272 kts | 30° |
| 2026-04-22 06:23 | 39.16239 | 23.81891 | 4999 ft | 264 kts | 5° |
| 2026-04-22 06:23 | 39.18036 | 23.81873 | 4775 ft | 256 kts | 349° |
| 2026-04-22 06:23 | 39.19767 | 23.81416 | 4517 ft | 253 kts | 341° |
| 2026-04-22 06:23 | 39.21404 | 23.80628 | 4256 ft | 250 kts | 330° |
| 2026-04-22 06:24 | 39.24313 | 23.78212 | 4010 ft | 248 kts | 319° |
| 2026-04-22 06:24 | 39.25331 | 23.76474 | 3999 ft | 243 kts | 289° |
| 2026-04-22 06:24 | 39.25506 | 23.74365 | 4005 ft | 244 kts | 259° |
| 2026-04-22 06:25 | 39.24912 | 23.72303 | 4003 ft | 248 kts | 240° |
| 2026-04-22 06:25 | 39.23903 | 23.70515 | 4009 ft | 245 kts | 233° |
| 2026-04-22 06:25 | 39.22836 | 23.68812 | 3997 ft | 243 kts | 232° |
| 2026-04-22 06:25 | 39.21763 | 23.67138 | 4003 ft | 240 kts | 232° |
| 2026-04-22 06:26 | 39.20695 | 23.65492 | 3989 ft | 239 kts | 232° |
| 2026-04-22 06:26 | 39.19626 | 23.63835 | 3998 ft | 243 kts | 232° |
| 2026-04-22 06:26 | 39.18550 | 23.62177 | 3994 ft | 244 kts | 231° |
| 2026-04-22 06:26 | 39.17476 | 23.60504 | 4011 ft | 239 kts | 232° |
| 2026-04-22 06:27 | 39.16282 | 23.59099 | 3984 ft | 229 kts | 208° |
| 2026-04-22 06:27 | 39.14786 | 23.58543 | 3994 ft | 220 kts | 193° |
| 2026-04-22 06:27 | 39.13333 | 23.58112 | 3912 ft | 210 kts | 204° |
| 2026-04-22 06:27 | 39.12021 | 23.57387 | 3792 ft | 200 kts | 205° |
| 2026-04-22 06:28 | 39.10771 | 23.56680 | 3637 ft | 193 kts | 207° |
| 2026-04-22 06:28 | 39.09572 | 23.55962 | 3492 ft | 189 kts | 207° |
| 2026-04-22 06:28 | 39.08389 | 23.55224 | 3366 ft | 189 kts | 207° |
| 2026-04-22 06:28 | 39.07220 | 23.54480 | 3223 ft | 186 kts | 207° |
| 2026-04-22 06:29 | 39.06068 | 23.53739 | 3088 ft | 185 kts | 207° |
| 2026-04-22 06:29 | 39.04907 | 23.52989 | 2963 ft | 189 kts | 207° |
| 2026-04-22 06:29 | 39.03709 | 23.52211 | 2838 ft | 196 kts | 207° |
| 2026-04-22 06:29 | 39.02550 | 23.51293 | 2665 ft | 197 kts | 229° |
| 2026-04-22 06:30 | 39.02067 | 23.49715 | 2551 ft | 188 kts | 265° |
| 2026-04-22 06:30 | 39.02289 | 23.48118 | 2395 ft | 179 kts | 300° |
| 2026-04-22 06:30 | 39.03137 | 23.46992 | 2277 ft | 178 kts | 332° |
| 2026-04-22 06:30 | 39.04309 | 23.46579 | 2142 ft | 174 kts | 1° |
| 2026-04-22 06:31 | 39.05470 | 23.46819 | 2034 ft | 169 kts | 11° |
| 2026-04-22 06:31 | 39.06617 | 23.47122 | 1900 ft | 168 kts | 11° |
| 2026-04-22 06:31 | 39.07742 | 23.47439 | 1762 ft | 162 kts | 12° |
| 2026-04-22 06:31 | 39.08850 | 23.47757 | 1655 ft | 166 kts | 12° |
| 2026-04-22 06:32 | 39.10023 | 23.48092 | 1475 ft | 177 kts | 13° |
| 2026-04-22 06:32 | 39.11218 | 23.48434 | 1232 ft | 173 kts | 12° |
| 2026-04-22 06:32 | 39.12377 | 23.48766 | 1004 ft | 168 kts | 10° |
| 2026-04-22 06:32 | 39.13497 | 23.49086 | 792 ft | 161 kts | 9° |
| 2026-04-22 06:33 | 39.14552 | 23.49388 | 615 ft | 147 kts | 10° |
| 2026-04-22 06:33 | 39.15480 | 23.49575 | 423 ft | 129 kts | 4° |
| 2026-04-22 06:33 | 39.16362 | 23.49807 | 185 ft | 129 kts | 11° |
| 2026-04-22 06:33 | 39.17206 | 23.50138 | 33 ft | 126 kts | 17° |
| 2026-04-22 06:34 | 39.18027 | 23.50522 | 147 ft | 123 kts | 15° |
| 2026-04-22 06:34 | 39.18879 | 23.50873 | 585 ft | 133 kts | 11° |
| 2026-04-22 06:34 | 39.19886 | 23.51229 | 884 ft | 166 kts | 9° |
| 2026-04-22 06:34 | 39.21039 | 23.51535 | 1474 ft | 168 kts | 8° |
| 2026-04-22 06:35 | 39.22208 | 23.51848 | 1567 ft | 172 kts | 9° |
| 2026-04-22 06:35 | 39.23357 | 23.52159 | 1590 ft | 170 kts | 10° |
| 2026-04-22 06:35 | 39.24538 | 23.52480 | 1611 ft | 177 kts | 9° |
| 2026-04-22 06:35 | 39.25756 | 23.52830 | 1611 ft | 180 kts | 16° |
| 2026-04-22 06:36 | 39.26750 | 23.53786 | 1602 ft | 184 kts | 54° |
| 2026-04-22 06:36 | 39.27021 | 23.55406 | 1608 ft | 194 kts | 93° |
| 2026-04-22 06:36 | 39.26420 | 23.57011 | 1613 ft | 208 kts | 131° |
| 2026-04-22 06:36 | 39.25426 | 23.58361 | 2057 ft | 211 kts | 132° |
| 2026-04-22 06:37 | 39.24435 | 23.59782 | 2810 ft | 219 kts | 131° |
| 2026-04-22 06:37 | 39.23258 | 23.61064 | 3505 ft | 231 kts | 155° |
| 2026-04-22 06:37 | 39.21749 | 23.61848 | 3886 ft | 235 kts | 162° |
| 2026-04-22 06:37 | 39.20136 | 23.62246 | 3976 ft | 239 kts | 187° |
| 2026-04-22 06:38 | 39.18445 | 23.61972 | 3990 ft | 255 kts | 193° |
| 2026-04-22 06:38 | 39.16811 | 23.61069 | 4026 ft | 258 kts | 213° |
| 2026-04-22 06:38 | 39.15251 | 23.59897 | 3995 ft | 259 kts | 210° |
| 2026-04-22 06:38 | 39.13666 | 23.58796 | 4009 ft | 258 kts | 212° |
| 2026-04-22 06:39 | 39.12090 | 23.57724 | 3947 ft | 255 kts | 211° |
| 2026-04-22 06:39 | 39.10527 | 23.56682 | 3844 ft | 248 kts | 210° |
| 2026-04-22 06:39 | 39.09039 | 23.55702 | 3762 ft | 237 kts | 209° |
| 2026-04-22 06:39 | 39.07616 | 23.54772 | 3669 ft | 222 kts | 208° |
| 2026-04-22 06:40 | 39.06287 | 23.53903 | 3539 ft | 206 kts | 208° |
| 2026-04-22 06:40 | 39.05059 | 23.53102 | 3410 ft | 190 kts | 208° |
| 2026-04-22 06:40 | 39.03909 | 23.52352 | 3297 ft | 184 kts | 207° |
| 2026-04-22 06:40 | 39.02782 | 23.51536 | 3221 ft | 189 kts | 222° |
| 2026-04-22 06:41 | 39.02140 | 23.50080 | 3140 ft | 192 kts | 255° |
| 2026-04-22 06:41 | 39.02195 | 23.48378 | 2884 ft | 195 kts | 294° |
| 2026-04-22 06:41 | 39.03096 | 23.47147 | 2724 ft | 192 kts | 335° |
| 2026-04-22 06:41 | 39.04357 | 23.46567 | 2488 ft | 193 kts | 345° |
| 2026-04-22 06:42 | 39.05643 | 23.46194 | 2409 ft | 187 kts | 352° |
| 2026-04-22 06:42 | 39.06936 | 23.46212 | 2184 ft | 186 kts | 11° |
| 2026-04-22 06:42 | 39.08140 | 23.46692 | 1838 ft | 178 kts | 16° |
| 2026-04-22 06:42 | 39.09273 | 23.46949 | 1750 ft | 152 kts | 7° |
| 2026-04-22 06:43 | 39.10285 | 23.47218 | 1706 ft | 145 kts | 15° |
| 2026-04-22 06:43 | 39.11270 | 23.47602 | 1535 ft | 151 kts | 17° |
| 2026-04-22 06:43 | 39.12271 | 23.48011 | 1258 ft | 148 kts | 17° |
| 2026-04-22 06:43 | 39.13212 | 23.48467 | 1001 ft | 139 kts | 19° |
| 2026-04-22 06:44 | 39.14103 | 23.48841 | 755 ft | 134 kts | 9° |
| 2026-04-22 06:44 | 39.15023 | 23.49165 | 519 ft | 140 kts | 14° |
| 2026-04-22 06:44 | 39.15933 | 23.49572 | 289 ft | 142 kts | 15° |
| 2026-04-22 06:44 | 39.16879 | 23.49995 | 71 ft | 143 kts | 14° |
| 2026-04-22 06:45 | 39.17746 | 23.50367 | 40 ft | 118 kts | 17° |
| 2026-04-22 06:45 | 39.18241 | 23.50592 | 54 ft | 34 kts | 19° |
| 2026-04-22 06:45 | 39.18391 | 23.50682 | 54 ft | 10 kts | 40° |
| 2026-04-22 06:45 | 39.18414 | 23.50661 | 58 ft | 2 kts | 224° |
| 2026-04-22 06:46 | 39.18388 | 23.50652 | 55 ft | 6 kts | 193° |
| 2026-04-22 06:46 | 39.18332 | 23.50635 | 58 ft | 12 kts | 195° |
| 2026-04-22 06:46 | 39.18195 | 23.50573 | 51 ft | 28 kts | 199° |
| 2026-04-22 06:46 | 39.18001 | 23.50488 | 44 ft | 27 kts | 199° |
| 2026-04-22 06:47 | 39.17916 | 23.50359 | 41 ft | 15 kts | 243° |
| 2026-04-22 06:47 | 39.17842 | 23.50294 | 41 ft | 13 kts | 199° |
| 2026-04-22 06:47 | 39.17761 | 23.50260 | 39 ft | 9 kts | 195° |
| 2026-04-22 06:47 | 39.17696 | 23.50248 | 36 ft | 10 kts | 189° |
| 2026-04-22 06:48 | 39.17646 | 23.50198 | 34 ft | 7 kts | 282° |
| 2026-04-22 06:48 | 39.17647 | 23.50191 | 34 ft | 0 kts | 289° |
| 2026-04-22 06:54 | 39.17647 | 23.50192 | 34 ft | 0 kts | 289° |